Terminal Aerodrome Forecast
Issued by NWS

Current Version | Previous Version | Graphics & Text | Print | Product List | Glossary On
Versions: 1 2 3 4 5 6 7 8 9 10 11 12 13 14
317
FTUS41 KPBZ 152334
TAFMGW
TAF
KMGW 152334Z 1600/1624 25010KT P6SM VCSH BKN040
     FM160300 25010G20KT P6SM BKN040
     FM160700 26009KT P6SM BKN045
     FM161800 24010G19KT P6SM SCT200=

USA.gov is the U.S. government's official web portal to all federal, state and local government web resources and services.